Time;durP1;ratioP1;P1;durP2;ratioP2;P2;SDS_P1;SDS_P2;PMS_P1;PMS_P2;Temp;Humidity;BMP_temperature;BMP_pressure;BME280_temperature;BME280_humidity;BME280_pressure;Samples;Min_cycle;Max_cycle;Signal;HPM_P1;HPM_P2
2024/03/19 00:03:50;;;;;;;2.92;2.00;;;;;;;;;;10538071;28;20036;-73
2024/03/19 00:08:54;;;;;;;3.88;2.45;;;;;;;;;;10557295;28;20031;-73
2024/03/19 00:13:57;;;;;;;4.38;2.55;;;;;;;;;;10557306;28;20043;-72
2024/03/19 00:19:00;;;;;;;1.92;1.48;;;;;;;;;;10528218;28;20048;-73
2024/03/19 00:24:04;;;;;;;2.60;1.65;;;;;;;;;;10554872;28;20044;-73
2024/03/19 00:29:07;;;;;;;1.95;1.63;;;;;;;;;;10544459;28;20440;-73
2024/03/19 00:34:09;;;;;;;5.63;2.30;;;;;;;;;;10552875;28;20050;-73
2024/03/19 00:39:13;;;;;;;2.55;1.90;;;;;;;;;;10549224;28;20048;-72
2024/03/19 00:44:15;;;;;;;2.78;2.00;;;;;;;;;;10553527;27;20070;-73
2024/03/19 00:49:18;;;;;;;2.42;2.00;;;;;;;;;;10563460;27;20050;-73
2024/03/19 00:54:21;;;;;;;2.35;1.80;;;;;;;;;;10556962;27;20059;-73
2024/03/19 00:59:24;;;;;;;2.22;1.52;;;;;;;;;;10548401;27;20036;-73
2024/03/19 01:04:26;;;;;;;2.88;2.00;;;;;;;;;;10548949;27;20051;-73
2024/03/19 01:09:30;;;;;;;3.60;1.83;;;;;;;;;;10550544;27;20031;-73
2024/03/19 01:14:33;;;;;;;2.15;1.65;;;;;;;;;;10545761;28;20032;-73
2024/03/19 01:19:36;;;;;;;3.13;2.13;;;;;;;;;;10488031;28;20091;-73
2024/03/19 01:24:41;;;;;;;3.45;2.33;;;;;;;;;;10425667;28;20111;-73
2024/03/19 01:29:43;;;;;;;2.35;1.70;;;;;;;;;;10465766;28;20697;-73
2024/03/19 01:34:45;;;;;;;2.63;1.75;;;;;;;;;;10425420;28;20054;-73
2024/03/19 01:39:49;;;;;;;2.40;1.80;;;;;;;;;;10427867;28;20057;-72
2024/03/19 01:45:06;;;;;;;2.35;1.67;;;;;;;;;;10431555;28;20099;-73
2024/03/19 01:50:11;;;;;;;3.45;2.20;;;;;;;;;;10426862;28;20426;-72
2024/03/19 01:55:16;;;;;;;3.07;1.70;;;;;;;;;;10418970;28;20095;-73
2024/03/19 02:00:20;;;;;;;2.10;1.85;;;;;;;;;;10448543;28;20083;-72
2024/03/19 02:05:23;;;;;;;2.42;1.85;;;;;;;;;;10425140;28;20621;-73
2024/03/19 02:10:28;;;;;;;4.80;2.17;;;;;;;;;;10426028;28;20065;-73
2024/03/19 02:15:30;;;;;;;2.97;1.95;;;;;;;;;;10424432;28;20049;-73
2024/03/19 02:20:32;;;;;;;2.42;1.50;;;;;;;;;;10422931;28;20038;-72
2024/03/19 02:25:36;;;;;;;2.00;1.67;;;;;;;;;;10421259;28;20038;-72
2024/03/19 02:30:38;;;;;;;2.85;1.80;;;;;;;;;;10430001;28;20045;-72
2024/03/19 02:35:41;;;;;;;1.95;1.75;;;;;;;;;;10424050;28;20045;-73
2024/03/19 02:40:45;;;;;;;3.20;1.50;;;;;;;;;;10421762;28;20045;-72
2024/03/19 02:45:48;;;;;;;2.60;1.83;;;;;;;;;;10432414;28;20061;-73
2024/03/19 02:50:50;;;;;;;2.10;1.48;;;;;;;;;;10425669;28;20042;-72
2024/03/19 02:55:54;;;;;;;2.00;1.50;;;;;;;;;;10426046;28;20457;-73
2024/03/19 03:00:56;;;;;;;2.03;1.80;;;;;;;;;;10420848;28;20042;-73
2024/03/19 03:05:59;;;;;;;2.67;1.60;;;;;;;;;;10413444;28;20046;-73
2024/03/19 03:11:03;;;;;;;1.80;1.65;;;;;;;;;;10420223;28;20046;-72
2024/03/19 03:16:06;;;;;;;3.63;1.63;;;;;;;;;;10417584;28;20048;-73
2024/03/19 03:21:08;;;;;;;1.83;1.42;;;;;;;;;;10426004;28;20578;-72
2024/03/19 03:26:13;;;;;;;1.95;1.55;;;;;;;;;;10399253;28;20052;-72
2024/03/19 03:31:15;;;;;;;3.55;1.73;;;;;;;;;;10433655;28;20045;-72
2024/03/19 03:36:18;;;;;;;1.48;1.20;;;;;;;;;;10422046;28;20419;-72
2024/03/19 03:41:21;;;;;;;1.00;1.00;;;;;;;;;;10396922;28;20046;-72
2024/03/19 03:46:24;;;;;;;0.90;0.90;;;;;;;;;;10411782;28;20588;-72
2024/03/19 03:51:27;;;;;;;1.00;1.00;;;;;;;;;;10399317;28;20065;-75
2024/03/19 03:56:30;;;;;;;1.20;1.10;;;;;;;;;;10412902;28;20407;-72
2024/03/19 04:01:33;;;;;;;1.27;1.00;;;;;;;;;;10416699;28;20038;-73
2024/03/19 04:06:36;;;;;;;1.33;1.10;;;;;;;;;;10424326;28;20042;-75
2024/03/19 04:11:39;;;;;;;1.52;1.40;;;;;;;;;;10411757;28;20083;-75
2024/03/19 04:16:42;;;;;;;1.38;1.10;;;;;;;;;;10416782;28;20057;-75
2024/03/19 04:21:44;;;;;;;2.05;1.60;;;;;;;;;;10430523;28;20133;-75
2024/03/19 04:26:48;;;;;;;2.53;1.67;;;;;;;;;;10408896;28;20051;-75
2024/03/19 04:31:50;;;;;;;1.85;1.60;;;;;;;;;;10393094;28;20046;-75
2024/03/19 04:36:52;;;;;;;4.43;1.60;;;;;;;;;;10425915;28;20042;-75
2024/03/19 04:41:56;;;;;;;1.13;1.02;;;;;;;;;;10429256;28;20052;-75
2024/03/19 04:46:58;;;;;;;1.40;1.30;;;;;;;;;;10434196;28;20038;-75
2024/03/19 04:52:01;;;;;;;1.25;1.15;;;;;;;;;;10422697;28;20411;-75
2024/03/19 04:57:05;;;;;;;1.20;1.10;;;;;;;;;;10425174;28;22759;-75
2024/03/19 05:02:07;;;;;;;1.42;1.33;;;;;;;;;;10436225;28;20033;-75
2024/03/19 05:07:10;;;;;;;1.83;1.63;;;;;;;;;;10428980;28;20042;-75
2024/03/19 05:12:13;;;;;;;1.55;1.45;;;;;;;;;;10421878;28;20033;-75
2024/03/19 05:17:16;;;;;;;1.90;1.42;;;;;;;;;;10405100;28;20034;-75
2024/03/19 05:22:18;;;;;;;1.33;1.23;;;;;;;;;;10390422;22;20210;-74
2024/03/19 05:27:22;;;;;;;1.98;1.33;;;;;;;;;;10376809;28;20060;-74
2024/03/19 05:32:24;;;;;;;2.55;1.60;;;;;;;;;;10380432;28;20046;-75
2024/03/19 05:37:27;;;;;;;2.60;1.60;;;;;;;;;;10372857;28;20076;-75
2024/03/19 05:42:32;;;;;;;3.15;1.70;;;;;;;;;;10382158;28;20047;-75
2024/03/19 05:47:34;;;;;;;2.97;2.08;;;;;;;;;;10382328;28;20046;-74
2024/03/19 05:52:37;;;;;;;1.27;1.17;;;;;;;;;;10375088;28;20035;-75
2024/03/19 05:57:41;;;;;;;1.98;1.40;;;;;;;;;;10376184;28;20109;-75
2024/03/19 06:02:43;;;;;;;2.13;1.70;;;;;;;;;;10380526;28;20053;-75
2024/03/19 06:07:45;;;;;;;2.92;1.70;;;;;;;;;;10379717;28;20047;-74
2024/03/19 06:12:49;;;;;;;2.10;1.52;;;;;;;;;;10400248;28;20038;-74
2024/03/19 06:17:51;;;;;;;4.03;2.50;;;;;;;;;;10379806;28;20053;-75
2024/03/19 06:22:54;;;;;;;2.85;1.90;;;;;;;;;;10378407;28;20054;-75
2024/03/19 06:27:58;;;;;;;3.28;2.30;;;;;;;;;;10360158;28;20065;-75
2024/03/19 06:33:01;;;;;;;3.17;1.90;;;;;;;;;;10378190;28;20092;-74
2024/03/19 06:38:03;;;;;;;2.22;1.80;;;;;;;;;;10369538;28;20381;-75
2024/03/19 06:43:07;;;;;;;1.83;1.40;;;;;;;;;;10372401;28;20046;-74
2024/03/19 06:48:09;;;;;;;2.30;1.25;;;;;;;;;;10352646;28;20038;-75
2024/03/19 06:53:11;;;;;;;2.15;1.65;;;;;;;;;;10372447;28;20038;-75
2024/03/19 06:58:15;;;;;;;1.75;1.63;;;;;;;;;;10372174;28;20465;-75
2024/03/19 07:03:18;;;;;;;2.33;1.50;;;;;;;;;;10358137;28;20054;-75
2024/03/19 07:08:20;;;;;;;1.73;1.52;;;;;;;;;;10375653;28;20054;-75
2024/03/19 07:13:24;;;;;;;2.50;1.73;;;;;;;;;;10376048;28;20039;-75
2024/03/19 07:18:27;;;;;;;1.27;1.15;;;;;;;;;;10375543;28;20043;-75
2024/03/19 07:23:30;;;;;;;1.95;1.75;;;;;;;;;;10377606;28;20069;-75
2024/03/19 07:28:34;;;;;;;2.22;1.60;;;;;;;;;;10378422;28;20043;-75
2024/03/19 07:33:38;;;;;;;1.90;1.45;;;;;;;;;;10373763;28;20039;-75
2024/03/19 07:38:41;;;;;;;2.33;1.92;;;;;;;;;;10372620;28;20046;-75
2024/03/19 07:43:44;;;;;;;2.38;1.77;;;;;;;;;;10372661;28;20043;-75
2024/03/19 07:48:47;;;;;;;3.10;2.10;;;;;;;;;;10371390;28;20523;-74
2024/03/19 07:53:49;;;;;;;2.45;2.00;;;;;;;;;;10374876;28;20038;-75
2024/03/19 07:58:53;;;;;;;2.60;2.08;;;;;;;;;;10376715;28;20062;-75
2024/03/19 08:03:55;;;;;;;2.60;2.40;;;;;;;;;;10372908;28;20046;-75
2024/03/19 08:08:57;;;;;;;2.03;1.83;;;;;;;;;;10373998;28;20458;-74
2024/03/19 08:14:01;;;;;;;2.67;1.80;;;;;;;;;;10378999;28;20483;-74
2024/03/19 08:19:05;;;;;;;2.50;1.98;;;;;;;;;;10377196;28;20547;-74
2024/03/19 08:24:07;;;;;;;2.13;1.67;;;;;;;;;;10358260;28;20377;-74
2024/03/19 08:29:11;;;;;;;2.53;2.10;;;;;;;;;;10373938;28;20049;-74
2024/03/19 08:34:13;;;;;;;3.88;2.22;;;;;;;;;;10370939;28;20500;-74
2024/03/19 08:39:16;;;;;;;2.47;1.98;;;;;;;;;;10356640;28;20049;-74
2024/03/19 08:44:19;;;;;;;2.35;2.15;;;;;;;;;;10355366;28;20049;-74
2024/03/19 08:49:22;;;;;;;2.53;2.00;;;;;;;;;;10375483;28;20054;-74
2024/03/19 08:54:24;;;;;;;2.10;1.80;;;;;;;;;;10373872;28;20493;-74
2024/03/19 08:59:28;;;;;;;3.20;2.13;;;;;;;;;;10375545;28;20441;-74
2024/03/19 09:04:30;;;;;;;3.40;2.60;;;;;;;;;;10377640;28;20041;-74
2024/03/19 09:09:32;;;;;;;4.50;2.65;;;;;;;;;;10375641;28;20042;-74
2024/03/19 09:14:36;;;;;;;4.22;3.03;;;;;;;;;;10371551;28;20034;-74
2024/03/19 09:19:41;;;;;;;4.97;3.90;;;;;;;;;;10380092;28;20046;-74
2024/03/19 09:24:44;;;;;;;3.47;2.85;;;;;;;;;;10364249;28;20058;-74
2024/03/19 09:29:48;;;;;;;9.05;5.40;;;;;;;;;;10383844;28;20042;-74
2024/03/19 09:34:50;;;;;;;5.25;3.88;;;;;;;;;;10381402;28;20045;-74
2024/03/19 09:39:52;;;;;;;5.75;3.65;;;;;;;;;;10380434;28;20054;-74
2024/03/19 09:44:56;;;;;;;5.72;3.42;;;;;;;;;;10385237;28;20042;-74
2024/03/19 09:50:00;;;;;;;5.13;3.58;;;;;;;;;;10387781;28;20455;-74
2024/03/19 09:55:04;;;;;;;6.13;4.18;;;;;;;;;;10369173;28;20047;-74
2024/03/19 10:00:19;;;;;;;4.72;3.50;;;;;;;;;;10353685;28;20061;-74
2024/03/19 10:05:22;;;;;;;7.25;4.75;;;;;;;;;;10368295;28;20048;-74
2024/03/19 10:10:26;;;;;;;10.15;4.55;;;;;;;;;;10373843;28;20138;-74
2024/03/19 10:15:30;;;;;;;5.20;3.60;;;;;;;;;;10373865;28;20239;-74
2024/03/19 10:20:36;;;;;;;4.50;2.90;;;;;;;;;;10375486;28;20052;-74
2024/03/19 10:25:39;;;;;;;4.22;2.72;;;;;;;;;;10380362;28;20050;-74
2024/03/19 10:30:42;;;;;;;4.43;3.28;;;;;;;;;;10371881;28;20054;-74
2024/03/19 10:35:45;;;;;;;4.50;2.80;;;;;;;;;;10377871;28;20111;-74
2024/03/19 10:40:48;;;;;;;5.53;3.53;;;;;;;;;;10373134;28;20507;-74
2024/03/19 10:45:53;;;;;;;4.20;2.60;;;;;;;;;;10367992;28;20050;-74
2024/03/19 10:50:55;;;;;;;4.53;3.05;;;;;;;;;;10368816;28;20065;-74
2024/03/19 10:56:01;;;;;;;3.15;2.17;;;;;;;;;;10365311;28;20053;-73
2024/03/19 11:01:06;;;;;;;4.03;2.60;;;;;;;;;;10353878;28;20252;-74
2024/03/19 11:06:21;;;;;;;2.15;1.80;;;;;;;;;;10372825;28;20049;-74
2024/03/19 11:11:30;;;;;;;1.30;1.20;;;;;;;;;;10367278;28;20046;-74
2024/03/19 11:16:39;;;;;;;2.45;1.48;;;;;;;;;;10370692;28;20054;-73
2024/03/19 11:21:43;;;;;;;2.05;1.30;;;;;;;;;;10363648;28;20047;-74
2024/03/19 11:26:46;;;;;;;3.30;1.48;;;;;;;;;;10366807;28;20046;-74
2024/03/19 11:31:50;;;;;;;1.60;1.17;;;;;;;;;;10371713;28;20053;-74
2024/03/19 11:36:54;;;;;;;2.53;1.67;;;;;;;;;;10374720;28;20113;-74
2024/03/19 11:41:56;;;;;;;1.98;1.30;;;;;;;;;;10372485;28;20046;-74
2024/03/19 11:47:01;;;;;;;1.48;0.90;;;;;;;;;;10374509;28;20054;-74
2024/03/19 11:52:05;;;;;;;1.98;0.80;;;;;;;;;;10366151;28;20043;-74
2024/03/19 11:57:09;;;;;;;0.88;0.63;;;;;;;;;;10372382;28;20046;-74
2024/03/19 12:02:14;;;;;;;1.75;0.70;;;;;;;;;;10378198;28;20039;-74
2024/03/19 12:07:17;;;;;;;2.17;0.85;;;;;;;;;;10380162;28;20046;-74
2024/03/19 12:12:19;;;;;;;2.03;0.70;;;;;;;;;;10379603;28;20411;-74
2024/03/19 12:17:23;;;;;;;0.60;0.50;;;;;;;;;;10382629;28;20773;-74
2024/03/19 12:22:26;;;;;;;1.08;0.70;;;;;;;;;;10371959;28;20060;-74
2024/03/19 12:27:31;;;;;;;1.00;0.63;;;;;;;;;;10374166;28;20091;-74
2024/03/19 12:32:47;;;;;;;1.10;0.60;;;;;;;;;;10368777;28;20043;-74
2024/03/19 12:37:49;;;;;;;0.97;0.40;;;;;;;;;;10376219;28;20050;-74
2024/03/19 12:42:52;;;;;;;1.27;0.70;;;;;;;;;;10375888;28;20042;-74
2024/03/19 12:47:56;;;;;;;2.70;0.85;;;;;;;;;;10377262;28;20591;-73
2024/03/19 12:52:59;;;;;;;1.45;0.80;;;;;;;;;;10360551;28;20092;-74
2024/03/19 12:58:01;;;;;;;0.60;0.60;;;;;;;;;;10379631;28;20043;-74
2024/03/19 13:03:06;;;;;;;0.82;0.52;;;;;;;;;;10380375;28;20034;-73
2024/03/19 13:08:08;;;;;;;3.20;1.05;;;;;;;;;;10378965;28;20039;-74
2024/03/19 13:13:11;;;;;;;1.10;0.75;;;;;;;;;;10380134;28;20045;-73
2024/03/19 13:18:14;;;;;;;2.30;0.88;;;;;;;;;;10371768;28;20057;-74
2024/03/19 13:23:17;;;;;;;3.85;1.33;;;;;;;;;;10372617;28;20384;-74
2024/03/19 13:28:19;;;;;;;3.17;1.58;;;;;;;;;;10377341;28;20491;-73
2024/03/19 13:33:23;;;;;;;3.47;1.13;;;;;;;;;;10369185;28;20043;-74
2024/03/19 13:38:26;;;;;;;2.13;1.27;;;;;;;;;;10370736;28;20042;-73
2024/03/19 13:43:28;;;;;;;1.20;1.00;;;;;;;;;;10373070;28;20053;-73
2024/03/19 13:48:33;;;;;;;1.55;1.00;;;;;;;;;;10375412;28;20561;-73
2024/03/19 13:53:35;;;;;;;2.15;1.17;;;;;;;;;;10373366;28;20050;-73
2024/03/19 13:58:38;;;;;;;2.17;1.20;;;;;;;;;;10384916;28;20034;-73
2024/03/19 14:03:41;;;;;;;2.25;1.23;;;;;;;;;;10375534;28;20046;-73
2024/03/19 14:08:44;;;;;;;1.25;1.00;;;;;;;;;;10376564;28;20056;-73
2024/03/19 14:13:46;;;;;;;1.65;1.17;;;;;;;;;;10371374;28;20114;-73
2024/03/19 14:18:50;;;;;;;2.25;1.23;;;;;;;;;;10375356;28;20051;-73
2024/03/19 14:23:52;;;;;;;1.95;1.10;;;;;;;;;;10370091;28;20053;-74
2024/03/19 14:28:58;;;;;;;1.30;0.70;;;;;;;;;;10382788;28;20042;-73
2024/03/19 14:34:01;;;;;;;1.60;0.82;;;;;;;;;;10373286;28;20046;-73
2024/03/19 14:39:04;;;;;;;1.05;0.90;;;;;;;;;;10373204;28;24843;-73
2024/03/19 14:44:07;;;;;;;1.15;1.05;;;;;;;;;;10371073;28;20056;-73
2024/03/19 14:49:10;;;;;;;1.27;0.80;;;;;;;;;;10373530;28;20103;-73
2024/03/19 14:54:13;;;;;;;1.83;0.80;;;;;;;;;;10375664;28;20038;-73
2024/03/19 14:59:15;;;;;;;1.95;1.00;;;;;;;;;;10373850;28;20462;-73
2024/03/19 15:04:19;;;;;;;1.70;1.00;;;;;;;;;;10371417;28;20036;-73
2024/03/19 15:09:22;;;;;;;1.98;0.90;;;;;;;;;;10373744;28;20047;-73
2024/03/19 15:14:24;;;;;;;1.92;0.88;;;;;;;;;;10371955;28;22086;-73
2024/03/19 15:19:28;;;;;;;1.25;0.88;;;;;;;;;;10370585;28;20047;-73
2024/03/19 15:24:31;;;;;;;0.75;0.52;;;;;;;;;;10367781;28;20042;-73
2024/03/19 15:29:33;;;;;;;1.67;0.57;;;;;;;;;;10370649;28;20038;-73
2024/03/19 15:34:38;;;;;;;0.88;0.55;;;;;;;;;;10361036;28;20053;-73
2024/03/19 15:39:40;;;;;;;2.03;0.90;;;;;;;;;;10367207;28;20050;-73
2024/03/19 15:44:43;;;;;;;2.20;0.95;;;;;;;;;;10359019;28;20042;-73
2024/03/19 15:49:47;;;;;;;1.95;1.00;;;;;;;;;;10367163;28;20088;-73
2024/03/19 15:54:51;;;;;;;0.98;0.57;;;;;;;;;;10368515;28;20050;-73
2024/03/19 15:59:54;;;;;;;0.73;0.60;;;;;;;;;;10364598;28;20061;-73
2024/03/19 16:04:57;;;;;;;1.42;0.60;;;;;;;;;;10366685;28;20038;-73
2024/03/19 16:10:00;;;;;;;1.05;0.55;;;;;;;;;;10371362;28;20062;-73
2024/03/19 16:15:04;;;;;;;3.72;1.00;;;;;;;;;;10380274;28;20039;-73
2024/03/19 16:20:10;;;;;;;1.10;0.60;;;;;;;;;;10374735;28;20632;-73
2024/03/19 16:25:14;;;;;;;0.55;0.40;;;;;;;;;;10379543;28;20057;-73
2024/03/19 16:30:19;;;;;;;0.95;0.50;;;;;;;;;;10380831;28;20050;-73
2024/03/19 16:35:22;;;;;;;0.60;0.50;;;;;;;;;;10379962;28;20049;-73
2024/03/19 16:40:25;;;;;;;1.02;0.77;;;;;;;;;;10359734;28;20525;-73
2024/03/19 16:45:27;;;;;;;1.25;0.60;;;;;;;;;;10361738;28;20046;-73
2024/03/19 16:50:31;;;;;;;1.25;0.60;;;;;;;;;;10364493;28;20042;-73
2024/03/19 16:55:34;;;;;;;1.45;1.05;;;;;;;;;;10354377;28;20058;-73
2024/03/19 17:00:36;;;;;;;1.42;0.82;;;;;;;;;;10311574;28;20050;-73
2024/03/19 17:05:42;;;;;;;2.33;1.27;;;;;;;;;;10380893;28;20042;-73
2024/03/19 17:10:44;;;;;;;4.05;1.88;;;;;;;;;;10361086;28;20043;-73
2024/03/19 17:15:49;;;;;;;3.25;1.92;;;;;;;;;;10379224;28;20054;-73
2024/03/19 17:20:53;;;;;;;1.85;1.45;;;;;;;;;;10387561;22;20125;-72
2024/03/19 17:25:56;;;;;;;1.90;1.40;;;;;;;;;;10286461;28;20050;-72
2024/03/19 17:30:58;;;;;;;2.13;1.70;;;;;;;;;;10280389;28;20051;-73
2024/03/19 17:36:02;;;;;;;2.65;1.80;;;;;;;;;;10266111;28;20039;-73
2024/03/19 17:41:04;;;;;;;2.28;1.60;;;;;;;;;;10256325;28;24644;-74
2024/03/19 17:46:07;;;;;;;2.22;1.50;;;;;;;;;;10246778;28;20039;-74
2024/03/19 17:51:11;;;;;;;3.03;1.63;;;;;;;;;;10248333;28;20054;-73
2024/03/19 17:56:13;;;;;;;5.30;1.85;;;;;;;;;;10246064;28;20053;-74
2024/03/19 18:01:16;;;;;;;3.88;2.78;;;;;;;;;;10253939;28;20058;-74
2024/03/19 18:06:19;;;;;;;5.35;2.60;;;;;;;;;;10260083;28;20043;-74
2024/03/19 18:11:22;;;;;;;4.15;2.72;;;;;;;;;;10250098;28;20423;-74
2024/03/19 18:16:24;;;;;;;4.60;2.83;;;;;;;;;;10256334;28;20546;-74
2024/03/19 18:21:28;;;;;;;5.75;2.60;;;;;;;;;;10265984;28;20439;-73
2024/03/19 18:26:30;;;;;;;3.15;2.25;;;;;;;;;;10267157;28;20034;-73
2024/03/19 18:31:33;;;;;;;5.10;3.08;;;;;;;;;;10297746;28;20059;-73
2024/03/19 18:36:37;;;;;;;5.43;2.67;;;;;;;;;;10255338;28;20043;-73
2024/03/19 18:41:40;;;;;;;5.28;3.10;;;;;;;;;;10248440;28;20412;-73
2024/03/19 18:46:42;;;;;;;4.38;3.10;;;;;;;;;;10273206;28;20053;-73
2024/03/19 18:51:46;;;;;;;5.85;3.35;;;;;;;;;;10264695;28;24465;-73
2024/03/19 18:56:49;;;;;;;5.25;3.15;;;;;;;;;;10262791;28;20060;-73
2024/03/19 19:01:51;;;;;;;7.82;4.15;;;;;;;;;;10270449;28;20054;-73
2024/03/19 19:06:55;;;;;;;5.95;3.65;;;;;;;;;;10257100;28;20045;-73
2024/03/19 19:11:57;;;;;;;5.80;3.58;;;;;;;;;;10253136;28;20463;-73
2024/03/19 19:16:59;;;;;;;6.53;2.55;;;;;;;;;;10251871;28;20039;-73
2024/03/19 19:22:04;;;;;;;4.05;2.90;;;;;;;;;;10249909;28;20058;-73
2024/03/19 19:27:08;;;;;;;4.50;3.13;;;;;;;;;;10235384;28;20068;-73
2024/03/19 19:32:13;;;;;;;7.78;5.45;;;;;;;;;;10249681;28;20058;-73
2024/03/19 19:37:16;;;;;;;7.82;5.25;;;;;;;;;;10240431;28;20043;-73
2024/03/19 19:42:19;;;;;;;8.60;4.25;;;;;;;;;;10249469;28;20046;-73
2024/03/19 19:47:22;;;;;;;5.57;3.42;;;;;;;;;;10238582;28;20047;-73
2024/03/19 19:52:25;;;;;;;4.63;2.75;;;;;;;;;;10247572;28;20043;-74
2024/03/19 19:57:28;;;;;;;5.88;2.60;;;;;;;;;;10243384;28;20102;-73
2024/03/19 20:02:31;;;;;;;4.45;3.28;;;;;;;;;;10244349;28;20530;-73
2024/03/19 20:07:36;;;;;;;5.63;3.83;;;;;;;;;;10247327;28;20503;-73
2024/03/19 20:12:39;;;;;;;5.70;3.60;;;;;;;;;;10230174;28;20051;-73
2024/03/19 20:17:41;;;;;;;7.75;3.88;;;;;;;;;;10238489;28;20512;-73
2024/03/19 20:22:46;;;;;;;8.23;4.28;;;;;;;;;;10254465;28;20043;-73
2024/03/19 20:27:49;;;;;;;6.85;4.07;;;;;;;;;;10245395;28;20039;-73
2024/03/19 20:32:52;;;;;;;5.80;3.90;;;;;;;;;;10240068;28;20051;-73
2024/03/19 20:37:56;;;;;;;5.82;3.80;;;;;;;;;;10237964;28;20036;-73
2024/03/19 20:43:00;;;;;;;8.00;4.32;;;;;;;;;;10259741;28;20056;-73
2024/03/19 20:48:05;;;;;;;5.28;3.30;;;;;;;;;;10243920;28;20039;-73
2024/03/19 20:53:09;;;;;;;6.30;3.33;;;;;;;;;;10292698;28;20047;-73
2024/03/19 20:58:11;;;;;;;5.95;3.78;;;;;;;;;;10245434;28;20047;-73
2024/03/19 21:03:14;;;;;;;6.38;4.03;;;;;;;;;;10253799;28;20043;-73
2024/03/19 21:08:17;;;;;;;5.45;3.47;;;;;;;;;;10255336;28;20043;-73
2024/03/19 21:13:20;;;;;;;5.45;3.30;;;;;;;;;;10249379;28;20035;-73
2024/03/19 21:18:23;;;;;;;5.20;3.58;;;;;;;;;;10287338;28;20051;-73
2024/03/19 21:23:26;;;;;;;3.85;2.78;;;;;;;;;;10245452;28;20516;-73
2024/03/19 21:28:29;;;;;;;4.13;2.55;;;;;;;;;;10250037;28;20035;-73
2024/03/19 21:33:31;;;;;;;4.72;3.08;;;;;;;;;;10250160;28;20397;-73
2024/03/19 21:38:35;;;;;;;3.20;2.65;;;;;;;;;;10245699;28;20041;-73
2024/03/19 21:43:37;;;;;;;2.90;2.35;;;;;;;;;;10242507;28;20047;-73
2024/03/19 21:48:39;;;;;;;4.68;2.58;;;;;;;;;;10254132;28;20042;-73
2024/03/19 21:53:43;;;;;;;3.55;2.33;;;;;;;;;;10275892;28;20062;-73
2024/03/19 21:58:46;;;;;;;4.72;2.65;;;;;;;;;;10255563;28;20039;-73
2024/03/19 22:03:48;;;;;;;3.58;2.25;;;;;;;;;;10245969;28;20036;-73
2024/03/19 22:08:52;;;;;;;4.25;2.75;;;;;;;;;;10268907;28;20043;-73
2024/03/19 22:13:54;;;;;;;6.32;2.72;;;;;;;;;;10252293;28;20037;-73
2024/03/19 22:18:56;;;;;;;2.58;2.28;;;;;;;;;;10252043;28;20046;-73
2024/03/19 22:24:00;;;;;;;2.58;2.33;;;;;;;;;;10249390;28;20061;-73
2024/03/19 22:29:02;;;;;;;3.00;2.33;;;;;;;;;;10255484;28;20043;-73
2024/03/19 22:34:05;;;;;;;4.22;3.05;;;;;;;;;;10253966;28;20772;-73
2024/03/19 22:39:24;;;;;;;2.20;1.90;;;;;;;;;;10253970;28;20046;-73
2024/03/19 22:44:26;;;;;;;3.65;2.15;;;;;;;;;;10250447;28;20618;-73
2024/03/19 22:49:29;;;;;;;3.90;2.45;;;;;;;;;;10257305;28;20045;-73
2024/03/19 22:54:32;;;;;;;4.40;2.50;;;;;;;;;;10257445;28;20047;-73
2024/03/19 22:59:35;;;;;;;4.85;2.28;;;;;;;;;;10254631;28;20042;-73
2024/03/19 23:04:37;;;;;;;2.08;1.85;;;;;;;;;;10234043;28;20051;-73
2024/03/19 23:09:43;;;;;;;2.08;1.85;;;;;;;;;;10247996;28;20779;-73
2024/03/19 23:14:46;;;;;;;2.33;1.83;;;;;;;;;;10253119;28;20054;-73
2024/03/19 23:19:48;;;;;;;3.33;2.17;;;;;;;;;;10270713;23;20050;-74
2024/03/19 23:24:52;;;;;;;3.05;2.00;;;;;;;;;;10283018;28;20055;-74
2024/03/19 23:29:54;;;;;;;2.97;2.08;;;;;;;;;;10288530;28;20073;-74
2024/03/19 23:34:57;;;;;;;2.50;1.88;;;;;;;;;;10293328;28;20087;-74
2024/03/19 23:40:00;;;;;;;4.13;2.15;;;;;;;;;;10291760;28;20054;-74
2024/03/19 23:45:04;;;;;;;3.67;2.17;;;;;;;;;;10292072;28;20510;-74
2024/03/19 23:50:08;;;;;;;4.75;2.05;;;;;;;;;;10289160;28;20110;-74
2024/03/19 23:55:13;;;;;;;2.80;1.85;;;;;;;;;;10287512;28;20141;-74
